Cuca Ranch (214, 682) Station Data

Red Flag Warning: No
Fire Weather Zone: 258
SDGE Region: North East
Lat/Lon: 33.286/-116.897

Observations

Time Wind Speed/Gust Temp(F) RH Fuel Moist Fuel Temp(F) Dewpt(F) Tmax(F) Tmin(F) Accum Precip 10-min Precip SL Press(mb)
4/26 2:50am 88 3 G 8 53° 68% - - 43° 56.1° 50.8° - - 881.0
4/26 2:40am 47 2 G 4 52° 69% - - 42° 56.1° 50.8° - - 881.0
4/26 2:30am 93 3 G 5 52° 68% - - 42° 56.1° 50.8° - - 881.0
4/26 2:20am 90 2 G 4 54° 66% - - 42° 56.1° 51.7° - - 880.0
4/26 2:10am 67 3 G 5 54° 66% - - 43° 56.1° 51.7° - - 880.0
4/26 2:00am 68 3 G 4 53° 72% - - 44° 56.1° 51.7° - - 883.0
4/26 1:50am 43 2 G 4 52° 75% - - 44° 56.1° 51.7° - - 883.0
4/26 1:40am 280 1 G 3 52° 73% - - 44° 56.1° 51.9° - - 883.0
4/26 1:30am 40 1 G 2 54° 63% - - 41° 56.1° 52.5° - - 879.0
4/26 1:20am 52 2 G 5 55° 60% - - 42° 56.1° 52.6° - - 878.0
4/26 1:10am 74 3 G 5 54° 64% - - 42° 55.8° 52.6° - - 879.0
4/26 1:00am 90 3 G 4 55° 64% - - 43° 55.8° 52.6° - - 880.0
4/26 12:50am 103 2 G 4 55° 64% - - 43° 55.8° 52.6° - - 880.0
4/26 12:40am 133 3 G 6 55° 64% - - 43° 55.8° 52.6° - - 880.0
4/26 12:30am 58 2 G 4 54° 65% - - 43° 54.6° 52.6° - - 880.0
4/26 12:20am 61 3 G 3 54° 65% - - 42° 54.6° 52.6° - - 880.0
4/26 12:10am 86 4 G 7 54° 68% - - 43° 54.6° 52.6° - - 881.0
4/26 12:00am 99 6 G 7 53° 68% - - 43° 62.7° 48.8° - - 881.0
4/25 11:50pm 95 6 G 8 53° 71% - - 44° 62.7° 48.8° - - 882.0
4/25 11:40pm 103 5 G 7 54° 72% - - 45° 62.7° 48.8° - - 883.0
4/25 11:30pm 99 4 G 6 54° 72% - - 45° 62.7° 48.8° - - 883.0
4/25 11:20pm 96 6 G 8 53° 72% - - 45° 62.7° 48.8° - - 883.0
4/25 11:10pm 95 6 G 8 53° 74% - - 45° 62.7° 48.8° - - 884.0
4/25 11:00pm 87 5 G 7 52° 76% - - 45° 62.7° 48.8° - - 884.0
4/25 10:50pm 90 6 G 8 52° 79% - - 46° 62.7° 48.8° - - 885.0
4/25 10:40pm 84 4 G 7 53° 79% - - 46° 62.7° 48.8° - - 886.0
4/25 10:30pm 96 5 G 7 52° 80% - - 46° 62.7° 48.8° - - 886.0
4/25 10:20pm 85 5 G 6 52° 80% - - 46° 62.7° 48.8° - - 886.0
4/25 10:10pm 90 4 G 6 52° 79% - - 46° 62.7° 48.8° - - 885.0
4/25 10:00pm 87 2 G 3 53° 79% - - 46° 62.7° 48.8° - - 886.0
4/25 9:50pm 49 3 G 4 52° 80% - - 46° 62.7° 48.8° - - 886.0
4/25 9:40pm 94 3 G 4 52° 79% - - 46° 62.7° 48.8° - - 885.0
4/25 9:30pm 86 3 G 4 52° 77% - - 45° 62.7° 48.8° - - 884.0
4/25 9:20pm 89 4 G 4 53° 74% - - 45° 62.7° 48.8° - - 883.0
4/25 9:10pm 88 4 G 5 52° 75% - - 45° 62.7° 48.8° - - 884.0
4/25 9:00pm 92 2 G 4 52° 75% - - 45° 62.7° 48.8° - - 884.0
4/25 8:50pm 83 2 G 3 52° 78% - - 45° 62.7° 48.8° - - 885.0
4/25 8:40pm 121 2 G 4 52° 77% - - 45° 62.7° 48.8° - - 885.0
4/25 8:30pm 98 3 G 5 52° 80% - - 46° 62.7° 48.8° - - 886.0
4/25 8:20pm 70 2 G 4 52° 80% - - 46° 62.7° 48.8° - - 886.0
4/25 8:10pm 83 2 G 3 53° 78% - - 46° 62.7° 48.8° - - 885.0
4/25 8:00pm 65 3 G 4 53° 77% - - 46° 62.7° 48.8° - - 885.0
4/25 7:50pm 121 1 G 2 54° 74% - - 46° 62.7° 48.8° - - 884.0
4/25 7:40pm 168 1 G 3 54° 73% - - 46° 62.7° 48.8° - - 883.0
4/25 7:20pm 277 3 G 6 55° 73% - - 46° 62.7° 48.8° - - 884.0
4/25 7:00pm 281 4 G 6 56° 71% - - 47° 62.7° 48.8° - - 883.0
4/25 6:50pm 294 4 G 7 57° 69% - - 47° 62.7° 48.8° - - 883.0
4/25 6:40pm 271 7 G 10 58° 67% - - 47° 62.7° 48.8° - - 882.0
4/25 6:30pm 268 6 G 10 58° 67% - - 47° 62.7° 48.8° - - 882.0
4/25 6:10pm 260 6 G 11 58° 70% - - 48° 62.7° 48.8° - - 883.0
4/25 6:00pm 263 6 G 8 58° 70% - - 48° 62.7° 48.8° - - 883.0
4/25 5:50pm 270 6 G 9 58° 70% - - 48° 62.7° 48.8° - - 883.0
4/25 5:40pm 275 5 G 9 58° 69% - - 48° 62.7° 48.8° - - 883.0
4/25 5:30pm 300 5 G 9 58° 69% - - 48° 62.7° 48.8° - - 883.0
4/25 5:20pm 280 7 G 10 58° 69% - - 48° 62.7° 48.8° - - 883.0
4/25 5:10pm 264 7 G 12 58° 69% - - 48° 62.7° 48.8° - - 883.0
4/25 5:00pm 257 6 G 10 58° 69% - - 48° 62.7° 48.8° - - 883.0
4/25 4:50pm 288 4 G 8 58° 69% - - 48° 62.7° 48.8° - - 883.0
4/25 4:40pm 294 6 G 10 59° 68% - - 48° 62.7° 48.8° - - 883.0
4/25 4:30pm 281 7 G 11 58° 69% - - 48° 62.7° 48.8° - - 883.0
4/25 4:20pm 278 7 G 10 58° 69% - - 48° 62.7° 48.8° - - 883.0
4/25 4:10pm 257 9 G 15 58° 68% - - 48° 62.7° 48.8° - - 883.0
4/25 4:00pm 276 7 G 12 59° 66% - - 48° 62.7° 48.8° - - 882.0
4/25 3:50pm 268 9 G 14 59° 67% - - 48° 62.7° 48.8° - - 882.0
4/25 3:40pm 262 10 G 14 59° 67% - - 48° 62.7° 48.8° - - 882.0
4/25 3:30pm 280 9 G 14 59° 68% - - 48° 62.7° 48.8° - - 883.0
4/25 3:20pm 294 8 G 15 59° 65% - - 48° 62.7° 48.8° - - 882.0
4/25 3:10pm 281 8 G 14 59° 66% - - 48° 62.7° 48.8° - - 882.0
4/25 3:00pm 277 7 G 12 59° 66% - - 48° 62.7° 48.8° - - 882.0
4/25 2:50pm 291 6 G 12 59° 65% - - 48° 62.7° 48.8° - - 882.0
4/25 2:40pm 260 8 G 14 59° 66% - - 48° 62.7° 48.8° - - 882.0
4/25 2:30pm 263 7 G 12 59° 65% - - 48° 62.7° 48.8° - - 882.0
4/25 2:20pm 272 7 G 11 59° 66% - - 48° 62.7° 48.8° - - 882.0
4/25 2:10pm 269 10 G 16 59° 65% - - 48° 62.7° 48.8° - - 882.0
4/25 2:00pm 259 11 G 17 60° 63% - - 48° 62.7° 48.8° - - 881.0
4/25 1:50pm 277 8 G 14 60° 63% - - 48° 62.7° 48.8° - - 881.0
4/25 1:40pm 282 10 G 17 60° 62% - - 47° 62.7° 48.8° - - 881.0
4/25 1:30pm 267 8 G 14 60° 64% - - 48° 62.3° 48.8° - - 881.0
4/25 1:20pm 286 7 G 14 60° 63% - - 47° 60.9° 48.8° - - 881.0
4/25 1:10pm 254 7 G 15 60° 63% - - 47° 60.9° 48.8° - - 881.0
4/25 1:00pm 257 8 G 14 59° 65% - - 47° 60.5° 48.8° - - 882.0
4/25 12:50pm 264 8 G 15 60° 63% - - 47° 60.5° 48.8° - - 881.0
4/25 12:40pm 264 9 G 16 59° 64% - - 47° 59.9° 48.8° - - 881.0
4/25 12:30pm 295 6 G 13 59° 60% - - 45° 59.3° 48.8° - - 880.0
4/25 12:20pm 251 7 G 12 58° 61% - - 45° 58.9° 48.8° - - 880.0
4/25 12:10pm 272 5 G 10 58° 62% - - 45° 58.9° 48.8° - - 880.0
4/25 12:00pm 264 6 G 13 58° 64% - - 45° 58.7° 48.8° - - 881.0
4/25 11:50am 225 4 G 9 57° 66% - - 46° 57.6° 48.8° - - 881.0
4/25 11:40am 247 6 G 11 57° 66% - - 45° 57° 48.8° - - 881.0
4/25 11:30am 269 6 G 11 56° 67% - - 46° 57° 48.8° - - 882.0
4/25 11:20am 282 3 G 8 56° 68% - - 46° 57° 48.8° - - 882.0
4/25 11:10am 264 4 G 8 56° 71% - - 46° 56.7° 48.8° - - 883.0
4/25 11:00am 290 4 G 10 56° 69% - - 46° 56.7° 48.8° - - 883.0
4/25 10:50am 286 3 G 8 56° 71% - - 47° 56.7° 48.8° - - 883.0
4/25 10:40am 264 5 G 11 55° 73% - - 46° 55.3° 48.8° - - 884.0
4/25 10:30am 270 6 G 10 55° 73% - - 46° 55.2° 48.8° - - 884.0
4/25 10:20am 267 5 G 8 55° 74% - - 46° 55° 48.8° - - 884.0
4/25 10:10am 251 6 G 10 54° 75% - - 46° 54.8° 48.8° - - 884.0
4/25 10:00am 288 3 G 8 54° 75% - - 47° 54.8° 48.8° - - 885.0
4/25 9:50am 268 6 G 10 54° 76% - - 47° 54.5° 48.8° - - 885.0
4/25 9:40am 272 6 G 10 53° 79% - - 47° 54.2° 48.8° - - 886.0
4/25 9:30am 268 5 G 10 53° 82% - - 48° 53.3° 48.8° - - 887.0
4/25 9:20am 270 6 G 9 52° 86% - - 48° 53.3° 48.8° - - 889.0
4/25 9:10am 289 5 G 8 53° 86% - - 48° 53.3° 48.8° - - 889.0
4/25 9:00am 287 4 G 8 52° 89% - - 49° 52.6° 48.8° - - 890.0
4/25 8:50am 269 5 G 8 52° 92% - - 49° 51.9° 48.8° - - 891.0
4/25 8:40am 274 6 G 8 51° 95% - - 50° 51.5° 48.8° - - 892.0
4/25 8:30am 278 5 G 8 51° 96% - - 50° 51.2° 48.8° - - 892.0
4/25 8:20am 288 4 G 6 51° 97% - - 50° 50.9° 48.8° - - 893.0
4/25 8:10am 275 4 G 6 50° 97% - - 50° 50.9° 48.8° - - 893.0
4/25 8:00am 290 3 G 5 50° 98% - - 50° 50.9° 48.8° - - 893.0
4/25 7:50am 274 3 G 5 50° 98% - - 49° 50.9° 48.8° - - 893.0
4/25 7:40am 272 4 G 6 50° 98% - - 49° 50.9° 48.8° - - 893.0
4/25 7:30am 274 4 G 6 50° 99% - - 49° 50.9° 48.8° - - 893.0
4/25 7:20am 268 3 G 5 50° 99% - - 49° 50.9° 48.8° - - 893.0
4/25 7:10am 261 3 G 4 50° 99% - - 49° 50.9° 48.8° - - 893.0
4/25 7:00am 291 3 G 6 49° 99% - - 49° 50.9° 48.8° - - 893.0
4/25 6:50am 313 2 G 5 49° 99% - - 49° 50.9° 48.8° - - 893.0
4/25 6:40am 297 2 G 4 49° 99% - - 49° 50.9° 48.8° - - 893.0
4/25 6:30am 286 3 G 5 49° 99% - - 49° 50.9° 48.8° - - 893.0
4/25 6:20am 297 2 G 4 49° 99% - - 49° 50.9° 48.8° - - 893.0
4/25 6:10am 275 4 G 5 49° 99% - - 49° 50.9° 48.8° - - 893.0
4/25 6:00am 278 3 G 6 49° 99% - - 49° 50.9° 48.8° - - 893.0
4/25 5:50am 288 3 G 6 49° 99% - - 49° 50.9° 48.8° - - 893.0
4/25 5:40am 274 4 G 6 49° 99% - - 49° 50.9° 48.8° - - 893.0
4/25 5:30am 285 4 G 7 49° 99% - - 49° 50.9° 48.8° - - 893.0
4/25 5:20am 290 5 G 8 49° 99% - - 49° 50.9° 48.8° - - 893.0
4/25 5:10am 264 4 G 8 49° 99% - - 49° 50.9° 48.8° - - 893.0
4/25 5:00am 275 4 G 7 49° 99% - - 49° 50.9° 49° - - 893.0
4/25 4:50am 285 4 G 7 49° 99% - - 49° 50.9° 49° - - 893.0
4/25 4:40am 250 3 G 6 49° 99% - - 49° 50.9° 49° - - 893.0
4/25 4:30am 224 3 G 6 49° 99% - - 49° 50.9° 49° - - 893.0
4/25 4:20am 239 4 G 6 49° 99% - - 49° 50.9° 49° - - 893.0
4/25 4:10am 249 5 G 10 50° 99% - - 49° 50.9° 49° - - 893.0
4/25 4:00am 319 2 G 5 50° 99% - - 49° 50.9° 49° - - 893.0
4/25 3:50am 308 2 G 5 49° 99% - - 49° 50.9° 49° - - 893.0
4/25 3:40am 284 2 G 5 49° 99% - - 49° 50.9° 49° - - 893.0
4/25 3:30am 295 2 G 5 49° 99% - - 49° 50.9° 49° - - 893.0
4/25 3:20am 283 2 G 3 49° 99% - - 49° 50.9° 49° - - 893.0
4/25 3:10am 272 6 G 8 49° 98% - - 49° 50.9° 49° - - 893.0
4/25 3:00am 274 6 G 9 49° 98% - - 49° 50.9° 49° - - 893.0
4/25 2:50am 289 5 G 9 49° 98% - - 49° 50.9° 49° - - 893.0
4/25 2:40am 276 5 G 9 49° 98% - - 49° 50.9° 49° - - 893.0
4/25 2:30am 272 6 G 10 49° 98% - - 49° 50.9° 49.1° - - 893.0
4/25 2:20am 277 7 G 9 49° 98% - - 49° 50.9° 49.2° - - 893.0
4/25 2:10am 254 6 G 11 50° 98% - - 49° 50.9° 49.3° - - 893.0
4/25 2:00am 231 6 G 10 50° 98% - - 49° 50.9° 49.3° - - 893.0
4/25 1:50am 254 6 G 10 50° 98% - - 49° 50.9° 49.6° - - 893.0
4/25 1:40am 255 6 G 9 50° 98% - - 50° 50.9° 49.8° - - 893.0
4/25 1:30am 254 5 G 11 50° 98% - - 50° 50.9° 49.9° - - 893.0
4/25 1:20am 273 5 G 7 50° 98% - - 50° 50.9° 50° - - 893.0
4/25 1:10am 291 4 G 6 50° 98% - - 50° 50.9° 50° - - 893.0
4/25 1:00am 286 4 G 7 50° 98% - - 50° 50.9° 50° - - 893.0
4/25 12:50am 284 5 G 8 50° 98% - - 50° 50.9° 50.1° - - 893.0
4/25 12:40am 283 4 G 6 50° 98% - - 50° 50.9° 50.1° - - 893.0
4/25 12:30am 280 4 G 6 50° 97% - - 50° 50.9° 50.1° - - 893.0
4/25 12:20am 274 4 G 6 51° 97% - - 50° 50.9° 50.3° - - 892.0
4/25 12:10am 295 3 G 7 51° 96% - - 50° 50.9° 50.4° - - 892.0
4/25 12:00am 295 2 G 6 51° 96% - - 50° 63.7° 47.1° - - 892.0
4/24 11:50pm 288 2 G 4 51° 96% - - 50° 63.7° 47.1° - - 892.0
4/24 11:40pm 302 1 G 3 51° 96% - - 50° 63.7° 47.1° - - 892.0
4/24 11:30pm 273 3 G 6 51° 97% - - 50° 63.7° 47.1° - - 893.0
4/24 11:20pm 271 6 G 9 51° 97% - - 50° 63.7° 47.1° - - 893.0
4/24 11:10pm 268 8 G 12 51° 97% - - 50° 63.7° 47.1° - - 893.0
4/24 11:00pm 270 9 G 12 51° 97% - - 50° 63.7° 47.1° - - 893.0
4/24 10:50pm 263 8 G 12 51° 96% - - 50° 63.7° 47.1° - - 892.0
4/24 10:40pm 273 8 G 11 51° 96% - - 50° 63.7° 47.1° - - 892.0
4/24 10:30pm 275 6 G 9 51° 95% - - 50° 63.7° 47.1° - - 892.0
4/24 10:20pm 277 5 G 8 51° 95% - - 50° 63.7° 47.1° - - 892.0
4/24 10:10pm 288 5 G 8 51° 95% - - 50° 63.7° 47.1° - - 892.0
4/24 10:00pm 290 5 G 8 51° 95% - - 50° 63.7° 47.1° - - 892.0
4/24 9:50pm 271 6 G 9 51° 95% - - 50° 63.7° 47.1° - - 892.0
4/24 9:40pm 269 6 G 11 52° 95% - - 50° 63.7° 47.1° - - 892.0
4/24 9:30pm 261 6 G 11 52° 96% - - 51° 63.7° 47.1° - - 892.0
4/24 9:20pm 254 6 G 11 52° 96% - - 51° 63.7° 47.1° - - 893.0
4/24 9:10pm 255 9 G 12 52° 95% - - 51° 63.7° 47.1° - - 892.0
4/24 9:00pm 265 7 G 10 52° 95% - - 51° 63.7° 47.1° - - 892.0
4/24 8:50pm 252 5 G 10 53° 94% - - 51° 63.7° 47.1° - - 892.0
4/24 8:40pm 254 4 G 6 53° 92% - - 51° 63.7° 47.1° - - 891.0
4/24 8:30pm 277 3 G 6 53° 91% - - 50° 63.7° 47.1° - - 891.0
4/24 8:20pm 275 4 G 7 53° 91% - - 50° 63.7° 47.1° - - 891.0
4/24 8:10pm 270 4 G 9 53° 91% - - 50° 63.7° 47.1° - - 891.0
4/24 8:00pm 251 7 G 10 53° 91% - - 51° 63.7° 47.1° - - 891.0
4/24 7:50pm 267 5 G 8 53° 92% - - 51° 63.7° 47.1° - - 891.0
4/24 7:40pm 278 7 G 11 53° 93% - - 51° 63.7° 47.1° - - 892.0
4/24 7:30pm 268 7 G 12 54° 92% - - 51° 63.7° 47.1° - - 891.0
4/24 7:20pm 238 6 G 12 54° 91% - - 51° 63.7° 47.1° - - 891.0
4/24 7:10pm 232 9 G 15 54° 90% - - 51° 63.7° 47.1° - - 891.0
4/24 7:00pm 238 7 G 12 55° 89% - - 52° 63.7° 47.1° - - 890.0
4/24 6:50pm 250 9 G 13 55° 87% - - 52° 63.7° 47.1° - - 890.0
4/24 6:40pm 250 9 G 14 56° 84% - - 51° 63.7° 47.1° - - 889.0
4/24 6:30pm 247 9 G 12 56° 82% - - 51° 63.7° 47.1° - - 888.0
4/24 6:20pm 252 8 G 12 57° 80% - - 50° 63.7° 47.1° - - 887.0
4/24 6:10pm 258 8 G 12 57° 80% - - 51° 63.7° 47.1° - - 887.0
4/24 6:00pm 274 7 G 10 57° 80% - - 51° 63.7° 47.1° - - 887.0